Time;durP1;ratioP1;P1;durP2;ratioP2;P2;SDS_P1;SDS_P2;PMS_P1;PMS_P2;Temp;Humidity;BMP_temperature;BMP_pressure;BME280_temperature;BME280_humidity;BME280_pressure;Samples;Min_cycle;Max_cycle;Signal;HPM_P1;HPM_P2
2022/01/11 00:00:49;;;;;;;37.83;17.67;;;;;;;;;;5035247;28;20197;-70
2022/01/11 00:03:16;;;;;;;37.90;17.33;;;;;;;;;;5034847;28;20231;-70
2022/01/11 00:05:51;;;;;;;42.83;18.60;;;;;;;;;;5030364;28;20336;-69
2022/01/11 00:08:18;;;;;;;35.83;17.23;;;;;;;;;;5029271;28;20177;-71
2022/01/11 00:10:53;;;;;;;38.47;17.00;;;;;;;;;;5026423;28;21784;-71
2022/01/11 00:13:19;;;;;;;45.07;17.40;;;;;;;;;;5029301;28;20261;-70
2022/01/11 00:15:45;;;;;;;42.53;17.93;;;;;;;;;;5028127;28;20243;-69
2022/01/11 00:18:10;;;;;;;38.67;18.63;;;;;;;;;;5036126;28;20177;-70
2022/01/11 00:20:38;;;;;;;43.20;18.53;;;;;;;;;;5031569;28;20203;-70
2022/01/11 00:25:32;;;;;;;39.43;18.50;;;;;;;;;;5028911;28;20267;-70
2022/01/11 00:27:58;;;;;;;44.77;19.17;;;;;;;;;;5028673;28;20607;-70
2022/01/11 00:30:28;;;;;;;51.30;19.43;;;;;;;;;;5030737;28;20201;-70
2022/01/11 00:32:56;;;;;;;48.93;20.20;;;;;;;;;;5033342;28;20447;-70
2022/01/11 00:35:27;;;;;;;42.10;19.00;;;;;;;;;;5029121;28;20549;-70
2022/01/11 00:37:52;;;;;;;48.47;20.87;;;;;;;;;;5028830;28;20597;-70
2022/01/11 00:40:21;;;;;;;44.80;19.67;;;;;;;;;;5029880;28;20218;-71
2022/01/11 00:42:46;;;;;;;54.07;24.97;;;;;;;;;;5086129;23;20258;-70
2022/01/11 00:45:12;;;;;;;54.80;24.30;;;;;;;;;;5087120;27;20405;-70
2022/01/11 00:47:38;;;;;;;60.57;24.70;;;;;;;;;;5074768;28;20176;-70
2022/01/11 00:50:04;;;;;;;54.17;23.73;;;;;;;;;;5088464;27;20176;-70
2022/01/11 00:52:29;;;;;;;59.03;24.43;;;;;;;;;;5077282;28;20301;-69
2022/01/11 00:54:55;;;;;;;52.20;23.83;;;;;;;;;;5075192;28;20188;-70
2022/01/11 00:57:20;;;;;;;50.43;22.37;;;;;;;;;;5077655;28;20187;-70
2022/01/11 00:59:45;;;;;;;51.60;22.10;;;;;;;;;;5073931;28;20185;-70
2022/01/11 01:02:11;;;;;;;52.03;23.87;;;;;;;;;;5077758;28;20295;-72
2022/01/11 01:04:36;;;;;;;66.30;23.40;;;;;;;;;;5077168;28;20192;-70
2022/01/11 01:07:01;;;;;;;55.90;25.13;;;;;;;;;;5077977;28;20294;-69
2022/01/11 01:09:34;;;;;;;53.57;23.23;;;;;;;;;;5078581;28;20619;-70
2022/01/11 01:11:59;;;;;;;52.73;22.33;;;;;;;;;;5077349;28;20204;-72
2022/01/11 01:14:24;;;;;;;56.60;23.57;;;;;;;;;;5075458;28;20175;-72
2022/01/11 01:16:49;;;;;;;58.30;25.27;;;;;;;;;;5082745;28;20191;-71
2022/01/11 01:19:14;;;;;;;61.97;24.73;;;;;;;;;;5076773;28;20216;-72
2022/01/11 01:21:39;;;;;;;64.10;24.63;;;;;;;;;;5075753;28;21331;-71
2022/01/11 01:24:09;;;;;;;55.00;22.00;;;;;;;;;;5073065;28;20230;-71
2022/01/11 01:26:34;;;;;;;54.10;22.00;;;;;;;;;;5073689;28;20250;-72
2022/01/11 01:29:00;;;;;;;55.47;23.33;;;;;;;;;;5077063;28;20181;-72
2022/01/11 01:31:26;;;;;;;61.03;23.93;;;;;;;;;;5061240;28;20309;-70
2022/01/11 01:33:51;;;;;;;61.33;22.60;;;;;;;;;;5075339;28;20258;-71
2022/01/11 01:36:17;;;;;;;55.23;22.13;;;;;;;;;;5058421;28;20194;-70
2022/01/11 01:38:42;;;;;;;56.97;23.10;;;;;;;;;;5075013;28;20188;-71
2022/01/11 01:41:16;;;;;;;59.60;22.50;;;;;;;;;;5054501;28;20949;-71
2022/01/11 01:43:42;;;;;;;53.97;22.10;;;;;;;;;;5058745;28;20412;-71
2022/01/11 01:46:07;;;;;;;53.73;22.23;;;;;;;;;;5076330;28;20556;-71
2022/01/11 01:48:35;;;;;;;55.40;22.73;;;;;;;;;;5077156;28;20873;-71
2022/01/11 01:51:00;;;;;;;55.63;21.33;;;;;;;;;;5074574;28;20301;-72
2022/01/11 01:53:26;;;;;;;59.63;23.43;;;;;;;;;;5075587;28;20171;-71
2022/01/11 01:55:51;;;;;;;69.63;27.27;;;;;;;;;;5074120;28;20171;-72
2022/01/11 01:58:16;;;;;;;63.63;25.80;;;;;;;;;;5057764;28;20267;-71
2022/01/11 02:00:45;;;;;;;62.80;25.63;;;;;;;;;;5075782;28;20883;-72
2022/01/11 02:03:15;;;;;;;61.23;23.53;;;;;;;;;;5077969;28;20255;-69
2022/01/11 02:05:41;;;;;;;62.77;25.43;;;;;;;;;;5070807;28;20393;-72
2022/01/11 02:08:06;;;;;;;57.87;24.70;;;;;;;;;;5064210;28;20315;-71
2022/01/11 02:10:32;;;;;;;57.43;24.73;;;;;;;;;;5074645;28;20193;-70
2022/01/11 02:12:58;;;;;;;59.70;24.03;;;;;;;;;;5080218;28;20622;-72
2022/01/11 02:15:23;;;;;;;62.27;25.83;;;;;;;;;;5081503;28;20660;-72
2022/01/11 02:17:48;;;;;;;66.67;24.17;;;;;;;;;;5079609;28;20249;-70
2022/01/11 02:20:14;;;;;;;62.43;26.37;;;;;;;;;;5076962;28;20872;-70
2022/01/11 02:22:39;;;;;;;61.23;26.97;;;;;;;;;;5074287;28;20196;-70
2022/01/11 02:25:05;;;;;;;55.07;24.43;;;;;;;;;;5076316;28;20619;-72
2022/01/11 02:27:30;;;;;;;61.53;24.10;;;;;;;;;;5075326;28;20496;-71
2022/01/11 02:29:56;;;;;;;52.70;22.30;;;;;;;;;;5074682;28;20233;-72
2022/01/11 02:32:21;;;;;;;53.00;22.63;;;;;;;;;;5075477;28;20200;-72
2022/01/11 02:34:46;;;;;;;63.17;25.40;;;;;;;;;;5088877;28;20194;-71
2022/01/11 02:37:11;;;;;;;56.47;23.90;;;;;;;;;;5088647;28;20612;-72
2022/01/11 02:39:36;;;;;;;57.30;24.27;;;;;;;;;;5075431;28;20636;-71
2022/01/11 02:42:02;;;;;;;61.93;24.80;;;;;;;;;;5091096;28;20215;-71
2022/01/11 02:44:27;;;;;;;56.10;22.47;;;;;;;;;;5092630;28;20199;-71
2022/01/11 02:46:52;;;;;;;60.23;23.97;;;;;;;;;;5086226;28;20179;-72
2022/01/11 02:49:18;;;;;;;62.53;23.73;;;;;;;;;;5077609;28;20643;-71
2022/01/11 02:51:43;;;;;;;62.33;25.33;;;;;;;;;;5076080;28;20215;-71
2022/01/11 02:54:08;;;;;;;50.50;21.83;;;;;;;;;;5073931;28;20179;-71
2022/01/11 02:56:34;;;;;;;60.23;23.60;;;;;;;;;;5063280;28;20188;-71
2022/01/11 02:59:00;;;;;;;59.57;23.53;;;;;;;;;;5072500;28;21673;-71
2022/01/11 03:01:25;;;;;;;62.87;27.30;;;;;;;;;;5075378;28;20688;-71
2022/01/11 03:03:51;;;;;;;59.37;24.57;;;;;;;;;;5076926;28;20204;-72
2022/01/11 03:06:17;;;;;;;62.70;25.20;;;;;;;;;;5078000;28;20868;-70
2022/01/11 03:08:43;;;;;;;58.77;23.57;;;;;;;;;;5074377;28;20180;-70
2022/01/11 03:11:09;;;;;;;59.23;23.50;;;;;;;;;;5071449;28;20211;-69
2022/01/11 03:13:35;;;;;;;56.03;23.20;;;;;;;;;;5073121;28;20185;-69
2022/01/11 03:16:01;;;;;;;50.30;24.50;;;;;;;;;;5056779;28;20204;-69
2022/01/11 03:18:26;;;;;;;54.80;23.70;;;;;;;;;;5077965;28;20240;-70
2022/01/11 03:20:52;;;;;;;56.80;23.00;;;;;;;;;;5075974;28;20209;-70
2022/01/11 03:23:18;;;;;;;56.43;23.73;;;;;;;;;;5079573;28;20211;-72
2022/01/11 03:25:43;;;;;;;56.43;23.33;;;;;;;;;;5079769;28;20175;-71
2022/01/11 03:28:08;;;;;;;54.97;23.53;;;;;;;;;;5080495;28;20180;-70
2022/01/11 03:30:34;;;;;;;55.17;23.33;;;;;;;;;;5079120;28;20236;-70
2022/01/11 03:32:59;;;;;;;53.77;23.27;;;;;;;;;;5076948;28;20812;-70
2022/01/11 03:35:25;;;;;;;48.90;23.67;;;;;;;;;;5077641;28;20199;-69
2022/01/11 03:37:50;;;;;;;51.07;23.53;;;;;;;;;;5081787;28;20184;-69
2022/01/11 03:40:17;;;;;;;54.17;23.20;;;;;;;;;;5080521;28;20186;-69
2022/01/11 03:42:42;;;;;;;49.33;22.77;;;;;;;;;;5078964;28;20223;-69
2022/01/11 03:45:08;;;;;;;63.50;28.03;;;;;;;;;;5079086;28;20176;-69
2022/01/11 03:47:33;;;;;;;62.43;27.20;;;;;;;;;;5077517;28;20172;-72
2022/01/11 03:49:58;;;;;;;59.50;25.20;;;;;;;;;;5075525;28;20693;-70
2022/01/11 03:52:24;;;;;;;58.80;26.10;;;;;;;;;;5078146;28;20350;-70
2022/01/11 03:57:21;;;;;;;54.50;25.80;;;;;;;;;;5079243;28;20190;-69
2022/01/11 03:59:46;;;;;;;56.67;25.03;;;;;;;;;;5077896;28;20185;-70
2022/01/11 04:02:12;;;;;;;54.27;25.73;;;;;;;;;;5075149;28;20204;-69
2022/01/11 04:04:37;;;;;;;51.83;24.07;;;;;;;;;;5081587;28;20176;-73
2022/01/11 04:07:02;;;;;;;54.90;25.97;;;;;;;;;;5078087;28;20263;-70
2022/01/11 04:09:28;;;;;;;50.63;22.30;;;;;;;;;;5079183;28;20184;-70
2022/01/11 04:11:53;;;;;;;55.13;23.53;;;;;;;;;;5078055;28;20200;-70
2022/01/11 04:14:18;;;;;;;53.47;24.00;;;;;;;;;;5076167;28;20204;-72
2022/01/11 04:16:43;;;;;;;55.07;24.97;;;;;;;;;;5062421;28;20638;-71
2022/01/11 04:19:09;;;;;;;58.37;24.70;;;;;;;;;;5087565;28;20183;-71
2022/01/11 04:21:34;;;;;;;51.83;23.63;;;;;;;;;;5090158;28;20196;-71
2022/01/11 04:23:59;;;;;;;50.40;23.00;;;;;;;;;;5090322;28;20177;-71
2022/01/11 04:26:25;;;;;;;49.73;22.63;;;;;;;;;;5091198;28;20184;-71
2022/01/11 04:28:50;;;;;;;47.97;22.73;;;;;;;;;;5081230;28;20204;-70
2022/01/11 04:31:15;;;;;;;54.77;23.23;;;;;;;;;;5065269;28;20207;-71
2022/01/11 04:33:44;;;;;;;50.67;23.63;;;;;;;;;;5076765;28;20179;-70
2022/01/11 04:36:10;;;;;;;52.90;23.77;;;;;;;;;;5073619;28;20258;-71
2022/01/11 04:38:35;;;;;;;44.90;21.30;;;;;;;;;;5059266;28;20877;-71
2022/01/11 04:41:01;;;;;;;50.90;21.37;;;;;;;;;;5078042;28;20213;-69
2022/01/11 04:43:26;;;;;;;49.93;23.23;;;;;;;;;;5077299;28;20232;-70
2022/01/11 04:45:52;;;;;;;49.90;21.93;;;;;;;;;;5076081;28;20188;-71
2022/01/11 04:48:18;;;;;;;50.73;23.23;;;;;;;;;;5059048;28;20192;-70
2022/01/11 04:50:45;;;;;;;45.77;23.37;;;;;;;;;;5077961;28;20187;-70
2022/01/11 04:53:10;;;;;;;53.40;23.07;;;;;;;;;;5076453;28;20218;-70
2022/01/11 04:55:35;;;;;;;42.53;21.23;;;;;;;;;;5075298;28;20208;-70
2022/01/11 04:58:01;;;;;;;45.20;22.07;;;;;;;;;;5075436;28;20176;-70
2022/01/11 05:00:26;;;;;;;45.77;21.57;;;;;;;;;;5077065;28;20180;-70
2022/01/11 05:02:51;;;;;;;48.10;20.20;;;;;;;;;;5077903;28;20203;-70
2022/01/11 05:05:17;;;;;;;46.63;22.67;;;;;;;;;;5076738;28;20233;-69
2022/01/11 05:07:42;;;;;;;49.70;23.87;;;;;;;;;;5079193;28;20180;-70
2022/01/11 05:10:08;;;;;;;46.60;22.97;;;;;;;;;;5078912;28;20207;-71
2022/01/11 05:12:34;;;;;;;48.80;21.73;;;;;;;;;;5078086;28;20250;-70
2022/01/11 05:14:59;;;;;;;47.57;22.10;;;;;;;;;;5058648;28;20629;-70
2022/01/11 05:17:25;;;;;;;49.97;23.47;;;;;;;;;;5078250;28;20929;-70
2022/01/11 05:19:50;;;;;;;50.43;23.00;;;;;;;;;;5076926;28;20707;-70
2022/01/11 05:22:15;;;;;;;50.37;24.53;;;;;;;;;;5077183;28;20203;-70
2022/01/11 05:24:40;;;;;;;48.47;23.77;;;;;;;;;;5077623;28;20644;-71
2022/01/11 05:27:06;;;;;;;53.53;23.53;;;;;;;;;;5077828;28;20179;-71
2022/01/11 05:29:31;;;;;;;48.47;23.47;;;;;;;;;;5078669;28;20213;-70
2022/01/11 05:31:58;;;;;;;45.70;21.20;;;;;;;;;;5079627;28;20207;-71
2022/01/11 05:34:23;;;;;;;44.40;21.33;;;;;;;;;;5072739;28;20281;-71
2022/01/11 05:36:48;;;;;;;44.43;21.73;;;;;;;;;;5074350;28;20193;-71
2022/01/11 05:39:13;;;;;;;44.20;20.53;;;;;;;;;;5073090;28;20512;-69
2022/01/11 05:41:39;;;;;;;40.07;19.73;;;;;;;;;;5080068;28;20616;-69
2022/01/11 05:44:04;;;;;;;41.23;19.77;;;;;;;;;;5077503;28;20180;-70
2022/01/11 05:46:31;;;;;;;43.40;19.37;;;;;;;;;;5059262;28;20199;-69
2022/01/11 05:48:56;;;;;;;45.27;23.13;;;;;;;;;;5083119;28;20185;-70
2022/01/11 05:51:21;;;;;;;44.17;21.30;;;;;;;;;;5076236;28;20199;-72
2022/01/11 05:53:46;;;;;;;44.10;22.63;;;;;;;;;;5078948;28;20175;-69
2022/01/11 05:56:12;;;;;;;39.33;20.60;;;;;;;;;;5069088;28;20270;-70
2022/01/11 05:58:37;;;;;;;44.97;22.27;;;;;;;;;;5077142;28;20169;-70
2022/01/11 06:01:03;;;;;;;51.30;23.67;;;;;;;;;;5075971;28;20201;-70
2022/01/11 06:03:28;;;;;;;47.37;23.63;;;;;;;;;;5057769;28;20407;-70
2022/01/11 06:05:53;;;;;;;44.30;23.37;;;;;;;;;;5076700;28;20189;-70
2022/01/11 06:08:19;;;;;;;59.00;25.40;;;;;;;;;;5076124;28;20192;-70
2022/01/11 06:10:44;;;;;;;53.90;24.63;;;;;;;;;;5076945;28;20203;-70
2022/01/11 06:13:10;;;;;;;51.77;24.07;;;;;;;;;;5058524;28;20473;-71
2022/01/11 06:15:35;;;;;;;54.80;24.20;;;;;;;;;;5056491;28;21884;-70
2022/01/11 06:18:00;;;;;;;57.60;24.87;;;;;;;;;;5076196;28;20592;-70
2022/01/11 06:20:25;;;;;;;54.73;24.80;;;;;;;;;;5076792;28;21268;-70
2022/01/11 06:22:51;;;;;;;57.33;26.00;;;;;;;;;;5078812;28;20197;-71
2022/01/11 06:25:16;;;;;;;50.27;23.73;;;;;;;;;;5077048;28;20843;-70
2022/01/11 06:27:42;;;;;;;50.13;24.27;;;;;;;;;;5077320;28;20175;-71
2022/01/11 06:30:08;;;;;;;60.07;25.07;;;;;;;;;;5076218;28;20189;-69
2022/01/11 06:32:34;;;;;;;57.80;24.73;;;;;;;;;;5073937;28;20215;-70
2022/01/11 06:34:59;;;;;;;59.47;25.67;;;;;;;;;;5074020;28;20203;-70
2022/01/11 06:37:24;;;;;;;51.83;24.20;;;;;;;;;;5074677;28;20172;-70
2022/01/11 06:39:49;;;;;;;47.13;23.43;;;;;;;;;;5072262;28;20181;-72
2022/01/11 06:42:15;;;;;;;49.83;24.80;;;;;;;;;;5092923;22;20663;-70
2022/01/11 06:44:41;;;;;;;57.20;23.57;;;;;;;;;;5086514;28;20459;-69
2022/01/11 06:47:07;;;;;;;44.63;23.17;;;;;;;;;;5088669;28;20256;-69
2022/01/11 06:49:32;;;;;;;48.10;22.00;;;;;;;;;;5087794;28;20205;-69
2022/01/11 06:51:57;;;;;;;46.50;23.53;;;;;;;;;;5082579;28;20926;-69
2022/01/11 06:54:22;;;;;;;53.70;23.33;;;;;;;;;;5073731;28;20675;-69
2022/01/11 06:56:48;;;;;;;50.77;21.63;;;;;;;;;;5075703;28;20185;-69
2022/01/11 06:59:13;;;;;;;47.57;22.60;;;;;;;;;;5077654;28;20187;-69
2022/01/11 07:01:38;;;;;;;46.60;22.77;;;;;;;;;;5080254;28;20483;-69
2022/01/11 07:04:03;;;;;;;50.10;22.83;;;;;;;;;;5058155;28;20180;-69
2022/01/11 07:06:28;;;;;;;44.57;22.37;;;;;;;;;;5076338;28;20566;-69
2022/01/11 07:08:54;;;;;;;48.47;22.77;;;;;;;;;;5079082;28;20188;-69
2022/01/11 07:11:21;;;;;;;42.53;22.17;;;;;;;;;;5079801;28;20901;-69
2022/01/11 07:13:47;;;;;;;48.30;22.90;;;;;;;;;;5077550;28;20241;-69
2022/01/11 07:16:12;;;;;;;49.17;24.37;;;;;;;;;;5081587;28;20193;-68
2022/01/11 07:18:37;;;;;;;50.93;23.33;;;;;;;;;;5084295;28;20228;-70
2022/01/11 07:21:02;;;;;;;49.23;23.50;;;;;;;;;;5077022;28;20624;-70
2022/01/11 07:23:27;;;;;;;52.77;24.50;;;;;;;;;;5078113;28;20567;-69
2022/01/11 07:25:53;;;;;;;44.43;21.57;;;;;;;;;;5079825;28;20184;-70
2022/01/11 07:28:18;;;;;;;54.97;23.60;;;;;;;;;;5063009;28;20638;-68
2022/01/11 07:30:43;;;;;;;53.43;24.27;;;;;;;;;;5078223;28;20410;-69
2022/01/11 07:33:09;;;;;;;50.47;22.90;;;;;;;;;;5061712;28;20921;-69
2022/01/11 07:35:34;;;;;;;48.43;23.30;;;;;;;;;;5080003;28;21153;-69
2022/01/11 07:37:59;;;;;;;47.10;23.97;;;;;;;;;;5081426;28;20730;-69
2022/01/11 07:40:25;;;;;;;48.80;21.53;;;;;;;;;;5081715;28;20192;-70
2022/01/11 07:42:50;;;;;;;52.27;22.10;;;;;;;;;;5078239;28;20814;-69
2022/01/11 07:45:15;;;;;;;44.37;22.73;;;;;;;;;;5081578;28;20184;-70
2022/01/11 07:47:41;;;;;;;47.47;21.10;;;;;;;;;;5096497;28;20180;-70
2022/01/11 07:50:06;;;;;;;43.43;20.97;;;;;;;;;;5065118;28;20677;-70
2022/01/11 07:52:31;;;;;;;45.87;20.87;;;;;;;;;;5077493;28;20240;-70
2022/01/11 07:54:57;;;;;;;47.37;21.67;;;;;;;;;;5077764;28;20622;-70
2022/01/11 07:57:22;;;;;;;45.23;21.87;;;;;;;;;;5075298;28;20272;-70
2022/01/11 07:59:48;;;;;;;41.53;20.20;;;;;;;;;;5075772;28;20183;-71
2022/01/11 08:02:13;;;;;;;43.87;20.67;;;;;;;;;;5078951;28;20235;-70
2022/01/11 08:04:38;;;;;;;40.20;21.27;;;;;;;;;;5077133;28;20236;-69
2022/01/11 08:07:03;;;;;;;35.07;18.43;;;;;;;;;;5080213;28;20309;-68
2022/01/11 08:09:28;;;;;;;33.30;17.93;;;;;;;;;;5078566;28;20629;-69
2022/01/11 08:11:58;;;;;;;35.53;18.90;;;;;;;;;;5074681;28;20704;-69
2022/01/11 08:14:24;;;;;;;32.87;17.77;;;;;;;;;;5073563;28;20756;-68
2022/01/11 08:16:49;;;;;;;37.00;19.20;;;;;;;;;;5079755;28;20597;-68
2022/01/11 08:19:14;;;;;;;34.83;16.97;;;;;;;;;;5077579;28;20180;-68
2022/01/11 08:21:40;;;;;;;34.93;18.63;;;;;;;;;;5079247;28;20223;-69
2022/01/11 08:24:05;;;;;;;34.53;17.33;;;;;;;;;;5062717;28;20176;-69
2022/01/11 08:26:30;;;;;;;33.13;17.50;;;;;;;;;;5079168;28;20231;-69
2022/01/11 08:28:55;;;;;;;33.10;16.70;;;;;;;;;;5080076;28;20270;-69
2022/01/11 08:31:21;;;;;;;32.50;17.50;;;;;;;;;;5077878;28;20266;-69
2022/01/11 08:33:46;;;;;;;30.53;15.90;;;;;;;;;;5080310;28;20872;-69
2022/01/11 08:36:12;;;;;;;33.03;16.83;;;;;;;;;;5075763;28;20615;-69
2022/01/11 08:38:37;;;;;;;30.43;16.13;;;;;;;;;;5077379;28;20500;-69
2022/01/11 08:41:03;;;;;;;30.33;16.73;;;;;;;;;;5075293;28;20184;-68
2022/01/11 08:43:28;;;;;;;33.33;16.23;;;;;;;;;;5074862;28;20217;-68
2022/01/11 08:45:54;;;;;;;29.80;14.70;;;;;;;;;;5079358;28;20243;-68
2022/01/11 08:48:19;;;;;;;27.97;15.03;;;;;;;;;;5077447;28;20829;-68
2022/01/11 08:50:44;;;;;;;26.33;15.77;;;;;;;;;;5078265;28;20725;-66
2022/01/11 08:53:09;;;;;;;26.73;14.83;;;;;;;;;;5070637;28;20334;-69
2022/01/11 08:55:34;;;;;;;25.53;16.13;;;;;;;;;;5074828;28;20207;-69
2022/01/11 08:58:00;;;;;;;28.83;14.47;;;;;;;;;;5076737;28;20187;-69
2022/01/11 09:00:26;;;;;;;31.03;15.90;;;;;;;;;;5081060;28;20896;-69
2022/01/11 09:02:52;;;;;;;25.77;15.03;;;;;;;;;;5080687;28;20189;-68
2022/01/11 09:05:18;;;;;;;29.10;15.63;;;;;;;;;;5061244;28;20210;-69
2022/01/11 09:07:43;;;;;;;26.20;15.60;;;;;;;;;;5086763;28;20184;-69
2022/01/11 09:10:09;;;;;;;25.97;14.10;;;;;;;;;;5082116;28;20683;-69
2022/01/11 09:12:35;;;;;;;31.10;14.73;;;;;;;;;;5083832;28;20216;-69
2022/01/11 09:15:01;;;;;;;25.33;14.50;;;;;;;;;;5080262;28;20586;-69
2022/01/11 09:17:26;;;;;;;29.50;14.30;;;;;;;;;;5079869;28;20183;-68
2022/01/11 09:19:52;;;;;;;25.87;14.77;;;;;;;;;;5082000;28;20195;-69
2022/01/11 09:22:17;;;;;;;23.40;13.87;;;;;;;;;;5082010;28;22109;-69
2022/01/11 09:24:42;;;;;;;28.43;14.70;;;;;;;;;;5079726;28;21206;-68
2022/01/11 09:27:07;;;;;;;27.77;14.50;;;;;;;;;;5081937;28;20214;-69
2022/01/11 09:29:34;;;;;;;24.93;14.23;;;;;;;;;;5078880;28;20271;-69
2022/01/11 09:32:00;;;;;;;22.43;12.73;;;;;;;;;;5071049;28;20282;-70
2022/01/11 09:34:25;;;;;;;23.57;14.10;;;;;;;;;;5077890;28;20335;-69
2022/01/11 09:36:51;;;;;;;25.43;13.70;;;;;;;;;;5075507;28;20337;-68
2022/01/11 09:39:16;;;;;;;22.10;12.97;;;;;;;;;;5077072;28;20204;-69
2022/01/11 09:41:41;;;;;;;21.27;13.47;;;;;;;;;;5074347;28;20204;-69
2022/01/11 09:44:07;;;;;;;21.77;11.67;;;;;;;;;;5080980;28;20178;-68
2022/01/11 09:46:33;;;;;;;22.57;13.33;;;;;;;;;;5079521;28;20180;-68
2022/01/11 09:48:58;;;;;;;24.40;13.03;;;;;;;;;;5082372;28;20377;-69
2022/01/11 09:51:23;;;;;;;24.70;12.87;;;;;;;;;;5080528;28;20236;-69
2022/01/11 09:53:48;;;;;;;21.23;12.83;;;;;;;;;;5079336;28;20184;-69
2022/01/11 09:56:14;;;;;;;24.50;13.27;;;;;;;;;;5081575;28;20288;-70
2022/01/11 09:58:40;;;;;;;17.73;12.37;;;;;;;;;;5081664;28;20179;-69
2022/01/11 10:01:05;;;;;;;24.73;12.77;;;;;;;;;;5082099;28;20181;-69
2022/01/11 10:03:31;;;;;;;22.43;13.03;;;;;;;;;;5078718;28;20173;-68
2022/01/11 10:05:58;;;;;;;21.90;11.83;;;;;;;;;;5077517;28;20182;-68
2022/01/11 10:08:27;;;;;;;22.20;12.43;;;;;;;;;;5080366;28;20199;-69
2022/01/11 10:10:54;;;;;;;23.67;13.53;;;;;;;;;;5082826;28;20533;-69
2022/01/11 10:13:28;;;;;;;22.20;12.57;;;;;;;;;;5081452;28;20478;-69
2022/01/11 10:15:53;;;;;;;22.47;13.33;;;;;;;;;;5079555;28;20202;-69
2022/01/11 10:18:35;;;;;;;19.00;11.77;;;;;;;;;;5074959;28;20235;-70
2022/01/11 10:21:00;;;;;;;18.03;11.43;;;;;;;;;;5080816;28;20179;-69
2022/01/11 10:23:33;;;;;;;21.23;11.57;;;;;;;;;;5077745;28;20681;-69
2022/01/11 10:25:58;;;;;;;23.30;11.80;;;;;;;;;;5080716;28;20193;-69
2022/01/11 10:28:34;;;;;;;23.93;13.03;;;;;;;;;;5079119;28;20734;-69
2022/01/11 10:30:59;;;;;;;18.97;11.27;;;;;;;;;;5097793;28;20186;-67
2022/01/11 10:33:24;;;;;;;23.87;12.83;;;;;;;;;;5104646;28;20227;-69
2022/01/11 10:35:49;;;;;;;21.90;12.83;;;;;;;;;;5086390;28;20565;-69
2022/01/11 10:38:23;;;;;;;18.77;11.93;;;;;;;;;;5087421;28;20182;-68
2022/01/11 10:40:49;;;;;;;19.37;11.00;;;;;;;;;;5083639;28;20332;-68
2022/01/11 10:43:15;;;;;;;22.43;12.90;;;;;;;;;;5087700;28;20550;-69
2022/01/11 10:45:42;;;;;;;20.00;10.97;;;;;;;;;;5086271;28;20179;-69
2022/01/11 10:48:15;;;;;;;16.93;10.87;;;;;;;;;;5086161;28;20194;-69
2022/01/11 10:50:42;;;;;;;23.17;12.80;;;;;;;;;;5083600;28;20308;-69
2022/01/11 10:53:12;;;;;;;22.30;12.10;;;;;;;;;;5073747;28;21515;-69
2022/01/11 10:55:38;;;;;;;18.07;11.53;;;;;;;;;;5083671;28;20203;-69
2022/01/11 10:58:05;;;;;;;17.93;11.33;;;;;;;;;;5088640;28;20192;-69
2022/01/11 11:00:31;;;;;;;17.40;11.27;;;;;;;;;;5086895;28;20189;-68
2022/01/11 11:02:57;;;;;;;24.27;12.47;;;;;;;;;;5088435;28;20188;-68
2022/01/11 11:05:24;;;;;;;18.67;11.70;;;;;;;;;;5091666;28;20180;-69
2022/01/11 11:08:20;;;;;;;20.70;12.00;;;;;;;;;;5067310;28;20233;-69
2022/01/11 11:10:49;;;;;;;17.63;11.27;;;;;;;;;;5066761;28;20188;-69
2022/01/11 11:13:34;;;;;;;17.63;11.20;;;;;;;;;;5085599;28;20200;-70
2022/01/11 11:16:08;;;;;;;19.27;11.23;;;;;;;;;;5085223;28;20211;-69
2022/01/11 11:18:38;;;;;;;19.47;11.93;;;;;;;;;;5086287;28;20174;-69
2022/01/11 11:21:12;;;;;;;18.83;11.53;;;;;;;;;;5084475;28;20212;-70
2022/01/11 11:23:37;;;;;;;22.57;11.60;;;;;;;;;;5088394;28;20846;-69
2022/01/11 11:26:03;;;;;;;22.83;13.23;;;;;;;;;;5070758;28;20171;-70
2022/01/11 11:28:29;;;;;;;19.37;10.63;;;;;;;;;;5085224;28;20271;-69
2022/01/11 11:30:54;;;;;;;21.23;10.83;;;;;;;;;;5068383;28;20184;-69
2022/01/11 11:33:20;;;;;;;16.07;9.37;;;;;;;;;;5091047;28;20618;-70
2022/01/11 11:35:46;;;;;;;18.33;10.63;;;;;;;;;;5067961;28;20341;-68
2022/01/11 11:38:12;;;;;;;18.57;11.33;;;;;;;;;;5087455;28;20183;-69
2022/01/11 11:40:37;;;;;;;18.43;10.73;;;;;;;;;;5064816;28;20176;-68
2022/01/11 11:43:03;;;;;;;16.70;10.83;;;;;;;;;;5086113;28;20220;-68
2022/01/11 11:45:33;;;;;;;16.17;10.70;;;;;;;;;;5057565;28;20193;-68
2022/01/11 11:48:05;;;;;;;19.03;12.40;;;;;;;;;;5081067;28;20575;-67
2022/01/11 11:50:31;;;;;;;17.30;10.17;;;;;;;;;;5078327;28;20665;-68
2022/01/11 11:52:56;;;;;;;15.37;9.97;;;;;;;;;;5083767;28;20215;-67
2022/01/11 11:55:23;;;;;;;16.33;9.90;;;;;;;;;;5083690;28;20199;-68
2022/01/11 11:57:50;;;;;;;15.07;9.50;;;;;;;;;;5089061;28;20685;-68
2022/01/11 12:00:15;;;;;;;13.97;9.57;;;;;;;;;;5080693;28;20191;-68
2022/01/11 12:02:45;;;;;;;15.60;10.18;;;;;;;;;;5066981;28;20208;-69
2022/01/11 12:05:29;;;;;;;12.83;9.03;;;;;;;;;;5081746;28;20270;-69
2022/01/11 12:07:55;;;;;;;19.30;9.93;;;;;;;;;;5081908;28;20192;-71
2022/01/11 12:10:27;;;;;;;18.20;9.73;;;;;;;;;;5077270;28;20186;-69
2022/01/11 12:12:54;;;;;;;13.90;8.23;;;;;;;;;;5076286;28;20216;-68
2022/01/11 12:15:22;;;;;;;14.30;8.93;;;;;;;;;;5061643;28;20192;-68
2022/01/11 12:17:48;;;;;;;15.03;9.23;;;;;;;;;;5080146;28;20598;-68
2022/01/11 12:20:34;;;;;;;13.37;9.00;;;;;;;;;;5086165;28;20232;-69
2022/01/11 12:22:59;;;;;;;12.73;8.40;;;;;;;;;;5069718;28;20203;-70
2022/01/11 12:25:28;;;;;;;12.43;8.10;;;;;;;;;;5075241;28;20894;-70
2022/01/11 12:28:02;;;;;;;12.07;8.20;;;;;;;;;;5080872;28;20686;-70
2022/01/11 12:30:27;;;;;;;13.03;7.37;;;;;;;;;;5078500;28;20188;-70
2022/01/11 12:33:05;;;;;;;12.40;8.97;;;;;;;;;;5078552;28;20204;-70
2022/01/11 12:35:31;;;;;;;13.77;8.10;;;;;;;;;;5074305;28;20775;-70
2022/01/11 12:38:05;;;;;;;13.60;9.20;;;;;;;;;;5078485;28;20179;-68
2022/01/11 12:40:31;;;;;;;14.77;8.83;;;;;;;;;;5088399;28;20210;-69
2022/01/11 12:43:07;;;;;;;13.17;7.80;;;;;;;;;;5070577;23;20245;-70
2022/01/11 12:45:51;;;;;;;10.53;8.50;;;;;;;;;;5076844;28;20194;-71
2022/01/11 12:48:39;;;;;;;12.53;8.40;;;;;;;;;;5076359;28;20569;-71
2022/01/11 12:51:04;;;;;;;10.73;7.60;;;;;;;;;;5076086;28;20188;-71
2022/01/11 12:53:30;;;;;;;12.67;7.67;;;;;;;;;;5072056;28;20228;-71
2022/01/11 12:55:56;;;;;;;11.53;7.43;;;;;;;;;;5076256;28;20212;-71
2022/01/11 12:58:21;;;;;;;16.10;8.27;;;;;;;;;;5077763;28;20177;-72
2022/01/11 13:00:46;;;;;;;12.40;7.17;;;;;;;;;;5069493;28;20176;-71
2022/01/11 13:03:11;;;;;;;12.20;7.87;;;;;;;;;;5076208;28;20188;-71
2022/01/11 13:05:40;;;;;;;11.60;7.43;;;;;;;;;;5072324;28;20607;-71
2022/01/11 13:08:07;;;;;;;13.53;7.43;;;;;;;;;;5076239;28;21998;-71
2022/01/11 13:10:33;;;;;;;11.07;7.13;;;;;;;;;;5073434;28;20196;-71
2022/01/11 13:15:37;;;;;;;14.67;7.43;;;;;;;;;;5075838;28;20326;-71
2022/01/11 13:18:12;;;;;;;13.23;7.57;;;;;;;;;;5075680;28;20173;-71
2022/01/11 13:20:39;;;;;;;14.30;7.20;;;;;;;;;;5076029;28;20735;-71
2022/01/11 13:23:21;;;;;;;13.83;8.27;;;;;;;;;;5071157;28;20549;-71
2022/01/11 13:25:49;;;;;;;13.27;7.97;;;;;;;;;;5074928;28;20359;-71
2022/01/11 13:28:14;;;;;;;12.40;7.87;;;;;;;;;;5072097;28;20187;-72
2022/01/11 13:30:45;;;;;;;12.27;7.53;;;;;;;;;;5071833;28;20172;-72
2022/01/11 13:33:20;;;;;;;9.57;7.43;;;;;;;;;;5072921;28;20192;-71
2022/01/11 13:35:45;;;;;;;11.60;7.20;;;;;;;;;;5071822;28;21638;-71
2022/01/11 13:38:12;;;;;;;11.73;8.10;;;;;;;;;;5074710;28;20283;-71
2022/01/11 13:40:38;;;;;;;10.20;7.37;;;;;;;;;;5058325;28;20212;-71
2022/01/11 13:43:07;;;;;;;11.30;8.30;;;;;;;;;;5071398;28;20333;-71
2022/01/11 13:45:36;;;;;;;13.17;7.33;;;;;;;;;;5070528;28;20188;-71
2022/01/11 13:48:08;;;;;;;10.63;7.03;;;;;;;;;;5077176;28;20195;-71
2022/01/11 13:50:45;;;;;;;15.50;7.33;;;;;;;;;;5073162;28;20340;-71
2022/01/11 13:53:18;;;;;;;12.70;7.73;;;;;;;;;;5070855;28;20249;-71
2022/01/11 13:55:43;;;;;;;15.70;8.60;;;;;;;;;;5069115;28;20211;-73
2022/01/11 13:58:09;;;;;;;10.90;8.10;;;;;;;;;;5072570;28;20191;-71
2022/01/11 14:00:36;;;;;;;11.93;7.63;;;;;;;;;;5073920;28;20172;-70
2022/01/11 14:03:10;;;;;;;14.33;8.13;;;;;;;;;;5059301;28;20284;-71
2022/01/11 14:05:35;;;;;;;11.13;7.97;;;;;;;;;;5070759;28;20606;-71
2022/01/11 14:08:06;;;;;;;11.57;8.20;;;;;;;;;;5074653;28;20248;-70
2022/01/11 14:10:36;;;;;;;12.43;8.00;;;;;;;;;;5072209;28;20180;-72
2022/01/11 14:13:04;;;;;;;12.17;8.30;;;;;;;;;;5077039;28;20203;-71
2022/01/11 14:15:29;;;;;;;10.57;7.60;;;;;;;;;;5070713;28;20200;-71
2022/01/11 14:17:54;;;;;;;10.63;7.33;;;;;;;;;;5076032;28;20180;-71
2022/01/11 14:20:25;;;;;;;13.00;7.67;;;;;;;;;;5068381;28;20947;-71
2022/01/11 14:22:55;;;;;;;11.37;7.30;;;;;;;;;;5070996;28;20207;-71